Hlavní strana
METAR-TAF:

METAR-TAF

Letiště :

Bejrút, Libanon

zeměpisná šířka: 33-49N, zeměpisná délka: 035-29E, výška: 29 m

METAR: chybějící

Čas: 00:30 (21:30 UTC)

Předpověď počasí

Zpráva byla vytvořena před 5 hodinami a 30 minutami, v 16:00 UTC
Předpověď platná od 18 v 18 UTC do 19 v 24 UTC
Západní vítr 8 kt
Viditelnost: 8000 m
Oblačno až skoro zataženo ve výšce 3000 ft
Změna
od 18 v 22 UTC do 18 v 24 UTC
Jihojihovýchodní vítr 4 kt
Změna
od 19 v 06 UTC do 19 v 08 UTC
Západojihozápadní vítr 12 kt
Polojasno ve výšce 2600 ft
Změna
od 19 v 18 UTC do 19 v 20 UTC
Jihovýchodní vítr 4 kt
Viditelnost 10 km a více
Žádná oblačnost pod 1500 m, nevyskytují se cumulonimby.

TAF: OLBA 181600Z 1818/1924 28008KT 8000 BKN030 BECMG 1822/1824 15004KT BECMG 1906/1908 25012KT SCT026 BECMG 1918/1920 14004KT CAVOK

Stav a předpovědi počasí z více než 4 000 letišť (zprávy METAR a TAF).

Červené a žluté tečky na mapě představují dostupné meteorologické stanice.

Když kurzor umístíte na tečku, zobrazí se název stanice.

Pak kliknutím zobrazíte stav a předpověď počasí.

Chcete-li změnit mapu, kliknutím na zelené tlačítko se znaménkem +mapu přiblížíte, kliknutím na zelené tlačítko se znaménkem – mapu oddálíte a kliknutím na zelené šipky přejdete na sousední mapy.


METAR-TAF: